Time;durP1;ratioP1;P1;durP2;ratioP2;P2;SDS_P1;SDS_P2;PMS_P1;PMS_P2;Temp;Humidity;BMP_temperature;BMP_pressure;BME280_temperature;BME280_humidity;BME280_pressure;Samples;Min_cycle;Max_cycle;Signal;HPM_P1;HPM_P2
2024/04/04 00:01:02;;;;;;;4.50;1.90;;;;;;;12.22;62.61;98477.00;103411;1292;544956;-77
2024/04/04 00:04:40;;;;;;;4.90;1.70;;;;;;;12.21;62.70;98474.47;103341;1292;546132;-77
2024/04/04 00:08:18;;;;;;;3.00;2.10;;;;;;;12.19;62.65;98468.22;103121;1295;545071;-76
2024/04/04 00:11:55;;;;;;;3.10;2.10;;;;;;;12.18;62.76;98471.48;103217;1295;545874;-76
2024/04/04 00:15:41;;;;;;;4.20;2.20;;;;;;;12.14;62.78;98470.20;103124;1295;545070;-76
2024/04/04 00:19:11;;;;;;;3.10;2.20;;;;;;;12.11;62.83;98474.96;103158;1297;544973;-76
2024/04/04 00:22:49;;;;;;;3.00;2.40;;;;;;;12.07;62.87;98473.10;103466;1293;544998;-77
2024/04/04 00:26:27;;;;;;;3.30;2.40;;;;;;;12.01;62.86;98465.10;103274;1298;544938;-77
2024/04/04 00:30:04;;;;;;;6.20;2.80;;;;;;;11.99;62.91;98458.89;103265;1295;545107;-77
2024/04/04 00:33:46;;;;;;;4.70;2.80;;;;;;;11.95;63.07;98457.95;103105;1292;544861;-79
2024/04/04 00:37:24;;;;;;;6.50;2.90;;;;;;;11.91;63.02;98459.98;103259;1295;545993;-79
2024/04/04 00:41:01;;;;;;;5.00;2.40;;;;;;;11.84;63.02;98457.60;103466;1292;544958;-78
2024/04/04 00:44:39;;;;;;;3.00;2.20;;;;;;;11.80;62.98;98468.11;103406;1296;545165;-79
2024/04/04 00:48:17;;;;;;;3.90;2.60;;;;;;;11.78;63.14;98466.11;103357;1299;545120;-80
2024/04/04 00:51:53;;;;;;;5.30;2.50;;;;;;;11.76;63.28;98467.89;103286;1294;545510;-79
2024/04/04 00:55:34;;;;;;;4.10;2.50;;;;;;;11.71;63.18;98471.89;103416;1293;545448;-79
2024/04/04 00:59:13;;;;;;;4.40;2.70;;;;;;;11.69;63.32;98470.50;103119;1294;544639;-79
2024/04/04 01:02:53;;;;;;;5.60;3.00;;;;;;;11.66;63.45;98469.98;103675;1292;545147;-80
2024/04/04 01:06:30;;;;;;;6.10;2.90;;;;;;;11.62;63.43;98475.51;103675;1291;545500;-80
2024/04/04 01:10:07;;;;;;;4.20;2.80;;;;;;;11.57;63.57;98473.38;103214;1294;544954;-78
2024/04/04 01:13:43;;;;;;;5.40;3.30;;;;;;;11.53;63.55;98473.30;103356;1307;545671;-79
2024/04/04 01:17:21;;;;;;;3.10;2.70;;;;;;;11.49;63.62;98475.15;103223;1299;545468;-80
2024/04/04 01:20:59;;;;;;;4.20;2.90;;;;;;;11.46;63.73;98473.97;103122;1295;545266;-79
2024/04/04 01:24:36;;;;;;;8.60;2.90;;;;;;;11.42;63.83;98475.28;103312;1294;545521;-79
2024/04/04 01:28:14;;;;;;;5.90;2.80;;;;;;;11.38;63.85;98477.32;103185;1295;545012;-78
2024/04/04 01:31:49;;;;;;;4.90;3.20;;;;;;;11.36;64.10;98480.96;103105;1293;544941;-79
2024/04/04 01:35:29;;;;;;;4.80;3.60;;;;;;;11.32;64.16;98478.77;103465;1296;545916;-79
2024/04/04 01:39:10;;;;;;;5.40;3.50;;;;;;;11.27;64.14;98480.64;103579;1295;545122;-78
2024/04/04 01:42:52;;;;;;;7.40;4.90;;;;;;;11.24;64.22;98476.78;103146;1292;545725;-79
2024/04/04 01:46:29;;;;;;;10.10;5.50;;;;;;;11.23;64.24;98472.15;103069;1294;545801;-79
2024/04/04 01:50:07;;;;;;;10.80;6.50;;;;;;;11.19;64.38;98468.18;103141;1295;545021;-79
2024/04/04 01:53:48;;;;;;;9.40;6.00;;;;;;;11.17;64.50;98465.14;103265;1292;545612;-78
2024/04/04 01:57:27;;;;;;;7.40;4.60;;;;;;;11.15;64.55;98463.91;102988;1295;545535;-77
2024/04/04 02:01:04;;;;;;;5.30;4.40;;;;;;;11.13;64.60;98464.16;103035;1292;545078;-76
2024/04/04 02:04:42;;;;;;;10.10;4.80;;;;;;;11.13;64.85;98456.79;103121;1293;545143;-77
2024/04/04 02:08:20;;;;;;;7.90;5.20;;;;;;;11.13;64.90;98455.06;103063;1314;545677;-77
2024/04/04 02:11:57;;;;;;;10.70;5.70;;;;;;;11.13;64.95;98456.77;103115;1295;545602;-77
2024/04/04 02:15:39;;;;;;;9.20;6.60;;;;;;;11.15;65.21;98461.61;102932;1299;544972;-77
2024/04/04 02:19:13;;;;;;;14.60;9.50;;;;;;;11.16;65.03;98460.98;103425;1295;544912;-77
2024/04/04 02:22:51;;;;;;;15.20;9.40;;;;;;;11.18;65.06;98458.73;103401;1289;544988;-77
2024/04/04 02:26:26;;;;;;;10.80;6.10;;;;;;;11.19;65.25;98456.74;103173;1292;544928;-77
2024/04/04 02:30:08;;;;;;;8.20;6.90;;;;;;;11.20;65.16;98459.12;103139;1298;545019;-77
2024/04/04 02:33:43;;;;;;;10.60;9.00;;;;;;;11.23;65.34;98457.20;103155;1292;544956;-76
2024/04/04 02:37:25;;;;;;;7.60;6.90;;;;;;;11.25;65.50;98447.01;103030;1293;545070;-77
2024/04/04 02:41:04;;;;;;;8.50;6.00;;;;;;;11.28;65.43;98453.69;103048;1299;545107;-78
2024/04/04 02:44:40;;;;;;;5.90;5.30;;;;;;;11.30;65.54;98465.52;103311;1295;545419;-79
2024/04/04 02:48:18;;;;;;;7.20;5.20;;;;;;;11.32;65.70;98466.42;104208;1294;545180;-82
2024/04/04 02:51:57;;;;;;;6.40;4.70;;;;;;;11.35;65.61;98463.42;104094;1292;545068;-79
2024/04/04 02:55:34;;;;;;;6.00;5.00;;;;;;;11.39;65.72;98464.72;103296;1298;544998;-80
2024/04/04 02:59:13;;;;;;;6.50;5.20;;;;;;;11.42;65.80;98468.58;105447;1295;544903;-86
2024/04/04 03:02:49;;;;;;;11.20;6.10;;;;;;;11.45;65.84;98468.52;103655;1294;545873;-80
2024/04/04 03:06:26;;;;;;;7.80;6.00;;;;;;;11.49;65.88;98473.04;103742;1295;545565;-80
2024/04/04 03:10:06;;;;;;;7.50;6.60;;;;;;;11.53;65.74;98473.67;104332;1293;545105;-83
2024/04/04 03:22:52;;;;;;;10.60;7.70;;;;;;;11.62;65.89;98468.48;103562;1292;545045;-78
2024/04/04 03:26:31;;;;;;;8.70;7.40;;;;;;;11.66;66.05;98466.82;103536;1292;545492;-78
2024/04/04 03:30:08;;;;;;;8.60;7.70;;;;;;;11.68;65.96;98467.17;103558;1294;544954;-77
2024/04/04 03:33:45;;;;;;;9.80;6.90;;;;;;;11.67;66.02;98465.30;103551;1293;545648;-79
2024/04/04 03:37:21;;;;;;;10.10;7.80;;;;;;;11.69;66.03;98468.70;103448;1295;545998;-78
2024/04/04 03:41:05;;;;;;;11.10;9.00;;;;;;;11.71;66.12;98466.13;103754;1303;544774;-80
2024/04/04 03:44:41;;;;;;;11.10;8.30;;;;;;;11.71;66.18;98466.42;103990;1294;544991;-79
2024/04/04 03:48:18;;;;;;;7.90;6.60;;;;;;;11.72;66.16;98470.48;103728;1298;544979;-81
2024/04/04 03:52:00;;;;;;;8.00;6.60;;;;;;;11.72;66.19;98477.12;103368;1295;545511;-80
2024/04/04 03:55:35;;;;;;;8.50;7.40;;;;;;;11.73;66.23;98475.66;103476;1300;545462;-78
2024/04/04 03:59:17;;;;;;;6.70;6.10;;;;;;;11.73;66.22;98473.73;103847;1299;545129;-80
2024/04/04 04:02:54;;;;;;;6.70;6.00;;;;;;;11.72;66.23;98464.27;103147;1295;545017;-78
2024/04/04 04:06:30;;;;;;;7.70;6.90;;;;;;;11.69;66.42;98470.31;103404;1298;544945;-80
2024/04/04 04:10:12;;;;;;;7.10;6.50;;;;;;;11.68;66.45;98475.66;103410;1295;545973;-80
2024/04/04 04:13:50;;;;;;;10.10;6.30;;;;;;;11.69;66.60;98477.88;103486;1292;545070;-79
2024/04/04 04:17:28;;;;;;;8.20;7.30;;;;;;;11.69;66.50;98481.20;104844;1294;544733;-87
2024/04/04 04:21:24;;;;;;;7.40;6.80;;;;;;;11.72;66.50;98487.73;105064;1294;545579;-85
2024/04/04 04:25:20;;;;;;;7.70;6.50;;;;;;;11.71;66.55;98477.20;105616;1294;544672;-86
2024/04/04 04:29:02;;;;;;;6.30;5.70;;;;;;;11.73;66.63;98480.21;103849;1302;545480;-76
2024/04/04 04:32:39;;;;;;;6.50;5.40;;;;;;;11.75;66.72;98479.77;103195;1298;546714;-77
2024/04/04 04:36:15;;;;;;;6.80;6.00;;;;;;;11.77;66.78;98476.77;104377;1292;545400;-83
2024/04/04 05:17:54;;;;;;;3.80;3.50;;;;;;;12.78;66.66;98491.44;104118;1286;554422;-75
2024/04/04 05:20:44;;;;;;;4.50;3.40;;;;;;;12.87;66.57;98499.48;103396;1294;545070;-74
2024/04/04 05:24:20;;;;;;;4.50;3.80;;;;;;;12.86;66.63;98497.98;103217;1295;545688;-76
2024/04/04 05:28:00;;;;;;;4.20;3.80;;;;;;;12.84;66.82;98504.31;103265;1295;544966;-76
2024/04/04 05:31:42;;;;;;;4.50;3.90;;;;;;;12.80;66.78;98507.42;103664;1289;545140;-75
2024/04/04 05:35:19;;;;;;;12.50;5.00;;;;;;;12.76;66.86;98516.38;103205;1294;544989;-75
2024/04/04 05:38:55;;;;;;;4.90;4.20;;;;;;;12.70;66.76;98513.23;103356;1292;545628;-74
2024/04/04 05:42:34;;;;;;;8.10;4.80;;;;;;;12.64;66.91;98517.36;103047;1294;545116;-74
2024/04/04 05:46:16;;;;;;;7.90;5.10;;;;;;;12.64;66.94;98523.34;103268;1301;545043;-78
2024/04/04 05:49:54;;;;;;;13.30;7.00;;;;;;;12.68;66.90;98526.61;103235;1295;545005;-77
2024/04/04 05:53:31;;;;;;;6.70;5.70;;;;;;;12.70;66.99;98525.23;103369;1303;544933;-79
2024/04/04 05:57:07;;;;;;;8.90;6.00;;;;;;;12.78;67.02;98524.83;103230;1293;545482;-77
2024/04/04 06:00:49;;;;;;;8.60;7.00;;;;;;;12.85;67.02;98521.48;103315;1314;545580;-78
2024/04/04 06:04:26;;;;;;;8.70;6.60;;;;;;;12.91;66.94;98522.48;103411;1292;544946;-78
2024/04/04 06:08:09;;;;;;;7.60;6.50;;;;;;;12.95;67.10;98527.55;103278;1296;549329;-77
2024/04/04 06:11:42;;;;;;;7.70;7.00;;;;;;;12.97;67.12;98533.89;103232;1292;545015;-77
2024/04/04 06:15:20;;;;;;;9.40;7.00;;;;;;;12.99;67.11;98538.52;103387;1299;544981;-82
2024/04/04 06:18:58;;;;;;;7.00;6.50;;;;;;;12.98;67.15;98543.69;103822;1295;545578;-78
2024/04/04 06:22:44;;;;;;;7.10;6.40;;;;;;;12.94;67.23;98544.86;103458;1294;544975;-79
2024/04/04 06:26:13;;;;;;;7.50;6.80;;;;;;;12.94;67.19;98551.22;103569;1309;545471;-79
2024/04/04 06:30:10;;;;;;;7.80;7.20;;;;;;;12.95;67.56;98548.88;103090;1294;553219;-78
2024/04/04 06:33:27;;;;;;;8.20;7.30;;;;;;;12.93;67.77;98556.04;103880;1301;545435;-80
2024/04/04 06:37:07;;;;;;;8.20;7.50;;;;;;;12.92;67.88;98561.10;103635;1292;545164;-80
2024/04/04 06:40:48;;;;;;;8.00;7.30;;;;;;;12.95;68.06;98562.30;103694;1295;545547;-81
2024/04/04 06:44:41;;;;;;;8.90;8.10;;;;;;;13.01;68.03;98565.06;103418;1295;546424;-78
2024/04/04 06:48:07;;;;;;;8.80;7.80;;;;;;;13.08;68.31;98563.47;103531;1292;546479;-78
2024/04/04 06:51:43;;;;;;;7.70;7.00;;;;;;;13.12;68.29;98562.85;103367;1299;545068;-79
2024/04/04 06:55:24;;;;;;;7.90;7.20;;;;;;;13.24;68.31;98569.22;103472;1292;546431;-77
2024/04/04 06:59:07;;;;;;;9.20;6.90;;;;;;;13.37;68.43;98566.25;103756;1295;550104;-76
2024/04/04 07:02:59;;;;;;;6.60;6.10;;;;;;;13.57;68.29;98562.51;103374;1304;553613;-80
2024/04/04 07:06:18;;;;;;;6.00;5.50;;;;;;;13.71;68.01;98568.00;103554;1295;545707;-77
2024/04/04 07:09:56;;;;;;;6.50;5.90;;;;;;;13.83;68.08;98569.90;103312;1292;546388;-78
2024/04/04 07:13:35;;;;;;;5.60;5.10;;;;;;;13.91;67.85;98569.81;104246;1292;545600;-77
2024/04/04 07:17:12;;;;;;;5.50;5.00;;;;;;;13.93;67.54;98572.48;104345;1294;545085;-82
2024/04/04 07:20:53;;;;;;;5.50;5.00;;;;;;;13.94;67.58;98578.25;105503;1294;545068;-82
2024/04/04 07:24:34;;;;;;;6.20;5.30;;;;;;;13.94;67.48;98584.25;105265;1294;546400;-88
2024/04/04 07:28:17;;;;;;;4.70;4.30;;;;;;;13.94;67.66;98588.83;105034;1295;547514;-85
2024/04/04 07:31:49;;;;;;;5.00;4.60;;;;;;;13.96;67.96;98591.70;105205;1294;545076;-88
2024/04/04 07:35:52;;;;;;;6.00;5.40;;;;;;;14.06;68.03;98593.26;104980;1292;549611;-86
2024/04/04 07:39:09;;;;;;;6.30;5.10;;;;;;;14.19;68.24;98592.83;105031;1292;546434;-86
2024/04/04 07:42:53;;;;;;;4.80;4.40;;;;;;;14.36;68.13;98592.88;105640;1295;545332;-88
2024/04/04 07:46:30;;;;;;;5.10;4.50;;;;;;;14.50;68.14;98593.25;105106;1295;544988;-88
2024/04/04 07:50:07;;;;;;;4.00;3.60;;;;;;;14.70;68.11;98598.39;104930;1295;544793;-88
2024/04/04 07:53:42;;;;;;;4.50;4.10;;;;;;;14.86;68.05;98601.73;105619;1294;545121;-88
2024/04/04 07:57:23;;;;;;;3.20;3.00;;;;;;;15.07;67.86;98602.71;105050;1294;545059;-88
2024/04/04 08:01:14;;;;;;;2.70;2.50;;;;;;;15.17;67.74;98604.55;104869;1294;546579;-88
2024/04/04 08:15:29;;;;;;;5.80;5.20;;;;;;;15.98;67.65;98605.98;108132;1268;554402;-87
2024/04/04 08:19:01;;;;;;;4.80;4.10;;;;;;;16.67;67.76;98596.41;106571;1285;550567;-87
2024/04/04 08:22:01;;;;;;;3.90;3.50;;;;;;;16.91;67.29;98600.36;105101;1295;547019;-87
2024/04/04 08:25:52;;;;;;;3.50;2.90;;;;;;;17.12;67.13;98599.98;105252;1293;546355;-87
2024/04/04 08:29:14;;;;;;;3.20;2.10;;;;;;;17.27;66.68;98598.73;105144;1293;544731;-87
2024/04/04 08:32:51;;;;;;;2.30;1.80;;;;;;;17.43;66.35;98592.74;105008;1293;545193;-87
2024/04/04 08:36:26;;;;;;;2.00;1.80;;;;;;;17.49;65.97;98596.85;104909;1295;545058;-88
2024/04/04 08:40:19;;;;;;;4.00;2.20;;;;;;;17.57;65.84;98590.77;104878;1295;546370;-87
2024/04/04 08:43:55;;;;;;;4.40;2.20;;;;;;;17.67;65.67;98590.23;104978;1295;545433;-89
2024/04/04 09:01:56;;;;;;;4.80;1.90;;;;;;;18.24;64.70;98588.32;105839;1289;554037;-90
2024/04/04 09:04:48;;;;;;;10.00;2.90;;;;;;;18.69;64.32;98588.11;104697;1295;545012;-91
2024/04/04 09:08:32;;;;;;;4.20;2.00;;;;;;;18.98;64.00;98586.60;105754;1292;546169;-90
2024/04/04 09:12:10;;;;;;;7.00;1.60;;;;;;;19.04;63.55;98581.21;106114;1294;544917;-90
2024/04/04 09:16:04;;;;;;;10.00;3.50;;;;;;;19.11;63.46;98581.77;105308;1292;545012;-90
2024/04/04 09:20:10;;;;;;;2.00;1.20;;;;;;;19.43;63.08;98580.10;105062;1298;550552;-90
2024/04/04 09:23:18;;;;;;;3.00;1.50;;;;;;;19.45;62.58;98576.45;104974;1294;544696;-91
2024/04/04 09:26:58;;;;;;;1.90;1.30;;;;;;;19.54;62.37;98580.42;105012;1296;545311;-90
2024/04/04 09:30:36;;;;;;;1.80;1.40;;;;;;;19.85;62.05;98575.48;104925;1299;545034;-89
2024/04/04 09:34:13;;;;;;;1.90;1.00;;;;;;;19.83;61.31;98571.77;104887;1295;545592;-89
2024/04/04 09:38:09;;;;;;;1.80;1.10;;;;;;;19.91;61.44;98574.21;104855;1294;550223;-89
2024/04/04 09:41:30;;;;;;;11.30;2.00;;;;;;;19.94;60.70;98571.77;105123;1292;545912;-89
2024/04/04 09:55:37;;;;;;;4.60;1.30;;;;;;;20.25;60.08;98578.66;105938;1289;556169;-89
2024/04/04 09:58:29;;;;;;;1.70;1.40;;;;;;;20.25;59.29;98579.16;104980;1295;544723;-89
2024/04/04 10:02:08;;;;;;;1.90;1.70;;;;;;;20.01;58.91;98586.05;105147;1295;545600;-89
2024/04/04 10:06:32;;;;;;;5.60;3.00;;;;;;;19.87;58.75;98583.50;106107;1290;550793;-89
2024/04/04 10:09:24;;;;;;;1.60;1.40;;;;;;;19.94;58.70;98587.98;105208;1295;545256;-90
2024/04/04 10:12:57;;;;;;;2.30;1.30;;;;;;;19.80;58.10;98584.04;105283;1295;545074;-89
2024/04/04 10:16:53;;;;;;;2.80;1.10;;;;;;;19.73;58.20;98577.92;105305;1295;545094;-88
2024/04/04 10:20:29;;;;;;;2.00;1.30;;;;;;;19.80;58.04;98577.95;105306;1294;545466;-89
2024/04/04 10:24:03;;;;;;;3.40;1.70;;;;;;;19.82;57.71;98570.46;105017;1295;544972;-90
2024/04/04 10:27:51;;;;;;;1.80;1.20;;;;;;;19.89;57.58;98564.92;105426;1295;545798;-89
2024/04/04 10:42:17;;;;;;;3.30;1.50;;;;;;;20.09;56.98;98565.80;105929;1289;555055;-90
2024/04/04 10:45:22;;;;;;;5.80;1.50;;;;;;;20.12;56.72;98569.95;105188;1292;546488;-88
2024/04/04 10:59:22;;;;;;;3.10;1.80;;;;;;;20.57;56.09;98564.42;106789;1286;557817;-89
2024/04/04 11:02:12;;;;;;;2.50;1.60;;;;;;;20.72;55.69;98568.95;106341;1288;544985;-91
2024/04/04 11:06:00;;;;;;;1.80;1.40;;;;;;;20.70;55.39;98558.76;105143;1295;545016;-90
2024/04/04 11:09:41;;;;;;;1.90;1.50;;;;;;;20.67;55.27;98559.30;105111;1295;548035;-88
2024/04/04 11:13:45;;;;;;;3.80;1.40;;;;;;;20.80;55.08;98550.75;106125;1282;551550;-88
2024/04/04 11:16:45;;;;;;;3.30;1.20;;;;;;;20.93;54.73;98546.91;105230;1296;546135;-89
2024/04/04 11:20:26;;;;;;;1.70;0.90;;;;;;;21.08;54.31;98545.42;105048;1295;545264;-90
2024/04/04 11:24:55;;;;;;;1.40;0.70;;;;;;;21.17;52.70;98539.17;104963;1295;549506;-89
2024/04/04 11:39:40;;;;;;;3.00;0.70;;;;;;;21.60;50.79;98530.58;106037;1289;554619;-92
2024/04/04 11:42:42;;;;;;;2.30;0.40;;;;;;;21.83;49.02;98520.89;104885;1292;550474;-90
2024/04/04 11:46:20;;;;;;;1.30;0.70;;;;;;;21.75;48.52;98522.63;104965;1295;545351;-89
2024/04/04 11:49:34;;;;;;;2.10;0.90;;;;;;;21.71;47.99;98523.55;105528;1295;545149;-88
2024/04/04 11:53:16;;;;;;;2.50;0.70;;;;;;;21.64;47.63;98527.47;105252;1293;544845;-89
2024/04/04 11:56:54;;;;;;;2.90;0.80;;;;;;;21.63;47.19;98524.42;104961;1293;545026;-89
2024/04/04 12:00:34;;;;;;;6.40;1.10;;;;;;;21.63;46.97;98522.92;105056;1294;545054;-89
2024/04/04 12:04:13;;;;;;;2.00;0.90;;;;;;;21.76;46.90;98513.09;104974;1294;545329;-90
2024/04/04 12:07:48;;;;;;;3.60;0.70;;;;;;;21.94;46.91;98519.56;105339;1292;545092;-89
2024/04/04 12:11:30;;;;;;;4.60;0.90;;;;;;;22.05;46.50;98511.55;104915;1294;545559;-89
2024/04/04 12:15:07;;;;;;;2.70;0.70;;;;;;;22.06;46.32;98513.70;104827;1294;544892;-89
2024/04/04 12:33:23;;;;;;;3.60;1.30;;;;;;;22.38;46.03;98498.66;106172;1287;554857;-90
2024/04/04 12:36:20;;;;;;;3.30;1.30;;;;;;;22.72;46.20;98492.65;105838;1298;545233;-90
2024/04/04 12:40:19;;;;;;;1.70;1.20;;;;;;;22.70;46.26;98489.02;105574;1295;549874;-91
2024/04/04 12:54:03;;;;;;;3.10;1.40;;;;;;;22.84;46.25;98504.23;106854;1288;554295;-96
2024/04/04 12:57:18;;;;;;;1.60;0.90;;;;;;;22.74;46.03;98499.10;106733;1288;546144;-94
2024/04/04 13:01:00;;;;;;;1.30;0.90;;;;;;;22.37;45.85;98497.03;105708;1296;546250;-95
2024/04/04 13:15:31;;;;;;;3.90;1.00;;;;;;;21.87;45.37;98497.19;106181;1289;558826;-92
2024/04/04 13:18:26;;;;;;;3.90;2.60;;;;;;;21.35;45.14;98487.66;106627;1289;546141;-95
2024/04/04 13:33:04;;;;;;;7.10;2.20;;;;;;;21.01;45.12;98496.11;107656;1288;554898;-95
2024/04/04 13:47:01;;;;;;;5.10;2.20;;;;;;;21.30;45.20;98501.63;109348;1268;554276;-95
2024/04/04 13:50:20;;;;;;;9.70;2.10;;;;;;;21.37;44.92;98498.34;105259;1298;549690;-90
2024/04/04 13:54:16;;;;;;;6.80;2.20;;;;;;;21.16;44.91;98489.34;105540;1292;545065;-91
2024/04/04 13:57:22;;;;;;;7.70;2.90;;;;;;;20.99;44.89;98483.02;104982;1298;545571;-87
2024/04/04 14:01:01;;;;;;;7.90;1.90;;;;;;;20.86;44.75;98473.46;106029;1295;544727;-90
2024/04/04 14:04:42;;;;;;;6.90;2.10;;;;;;;20.66;44.84;98472.17;106147;1292;545097;-90
2024/04/04 14:08:07;;;;;;;11.90;2.70;;;;;;;20.56;44.81;98472.19;105395;1294;545029;-92
2024/04/04 14:12:07;;;;;;;6.10;1.90;;;;;;;20.39;44.82;98467.27;105339;1295;545549;-90
2024/04/04 14:15:49;;;;;;;12.70;2.40;;;;;;;20.24;44.97;98463.41;105397;1295;548376;-87
2024/04/04 14:19:18;;;;;;;6.60;2.20;;;;;;;20.17;44.92;98453.95;105783;1294;545018;-85
2024/04/04 14:23:06;;;;;;;4.10;2.10;;;;;;;20.17;45.07;98452.85;105997;1293;545171;-85
2024/04/04 14:37:26;;;;;;;8.60;2.70;;;;;;;20.38;45.02;98442.42;106428;1286;554150;-85
2024/04/04 14:40:46;;;;;;;5.50;3.10;;;;;;;20.41;45.00;98434.83;105871;1294;552012;-85
2024/04/04 14:43:50;;;;;;;6.50;2.80;;;;;;;20.32;45.04;98434.52;105888;1285;544724;-85
2024/04/04 14:47:35;;;;;;;8.70;2.60;;;;;;;20.16;45.08;98426.16;105018;1294;545403;-84
2024/04/04 14:51:07;;;;;;;7.40;3.30;;;;;;;20.04;45.23;98421.65;104869;1295;544757;-84
2024/04/04 14:54:54;;;;;;;8.10;3.70;;;;;;;19.83;45.23;98418.26;105220;1289;546019;-83
2024/04/04 15:08:54;;;;;;;4.60;2.10;;;;;;;19.95;45.60;98409.45;106043;1286;554196;-86
2024/04/04 15:11:44;;;;;;;6.70;3.30;;;;;;;19.97;45.65;98402.22;104636;1298;545240;-85
2024/04/04 15:15:23;;;;;;;6.70;3.30;;;;;;;19.91;45.72;98404.09;105153;1294;545140;-84
2024/04/04 15:19:00;;;;;;;8.30;4.90;;;;;;;19.92;45.75;98408.87;106059;1288;545029;-86
2024/04/04 15:33:01;;;;;;;2.80;2.00;;;;;;;19.94;45.95;98409.67;106227;1286;553773;-84
2024/04/04 15:35:57;;;;;;;4.50;2.30;;;;;;;19.67;46.08;98408.50;104909;1295;546208;-84
2024/04/04 15:39:33;;;;;;;6.10;2.10;;;;;;;19.46;46.30;98413.92;105358;1292;545427;-85
2024/04/04 15:43:07;;;;;;;6.90;2.90;;;;;;;19.22;46.57;98413.70;105624;1295;544697;-85
2024/04/04 16:00:38;;;;;;;4.10;1.70;;;;;;;18.59;47.67;98401.67;105021;1298;545032;-85
2024/04/04 16:14:53;;;;;;;3.70;2.00;;;;;;;18.48;48.20;98384.29;106830;1289;555306;-87
2024/04/04 16:17:42;;;;;;;6.60;2.50;;;;;;;18.36;48.55;98390.77;106164;1291;544814;-84
2024/04/04 16:21:23;;;;;;;4.10;1.80;;;;;;;18.10;48.77;98387.75;105239;1292;544926;-82
2024/04/04 16:25:04;;;;;;;5.30;1.70;;;;;;;17.91;48.84;98384.48;104798;1294;545023;-83
2024/04/04 16:28:37;;;;;;;8.20;1.70;;;;;;;17.69;49.15;98376.95;105083;1294;545422;-80
2024/04/04 16:32:17;;;;;;;2.80;1.80;;;;;;;17.51;49.52;98380.09;105309;1292;545927;-80
2024/04/04 16:35:59;;;;;;;3.20;1.50;;;;;;;17.38;49.70;98382.33;104396;1296;545656;-85
2024/04/04 16:39:36;;;;;;;3.20;1.60;;;;;;;17.31;49.87;98388.66;104968;1295;544915;-85
2024/04/04 16:43:15;;;;;;;3.80;2.30;;;;;;;17.22;50.13;98390.08;104991;1294;545445;-87
2024/04/04 17:11:05;;;;;;;21.30;13.50;;;;;;;17.11;50.85;98410.56;104472;1286;554923;-80
2024/04/04 17:13:57;;;;;;;9.20;5.90;;;;;;;16.89;51.32;98414.04;104006;1297;546381;-80
2024/04/04 17:17:32;;;;;;;6.40;3.90;;;;;;;16.71;51.78;98411.45;103527;1297;545051;-79
2024/04/04 17:21:10;;;;;;;7.50;4.50;;;;;;;16.57;51.88;98414.46;104331;1287;544949;-79
2024/04/04 17:24:59;;;;;;;3.70;3.10;;;;;;;16.43;52.26;98412.86;103314;1295;549210;-80
2024/04/04 17:28:25;;;;;;;4.60;2.30;;;;;;;16.32;52.58;98408.34;103464;1292;545651;-80
2024/04/04 17:32:04;;;;;;;4.20;2.30;;;;;;;16.22;52.77;98407.11;103729;1291;545247;-77
2024/04/04 17:35:54;;;;;;;4.30;2.80;;;;;;;16.13;52.97;98408.73;104456;1298;549203;-82
2024/04/04 17:39:18;;;;;;;4.20;2.50;;;;;;;16.07;53.22;98404.50;104125;1292;545402;-81
2024/04/04 18:34:47;;;;;;;6.70;2.30;;;;;;;16.09;54.48;98433.78;105146;1289;553781;-80
2024/04/04 18:37:42;;;;;;;3.60;1.90;;;;;;;15.96;54.67;98446.75;104048;1295;545748;-82
2024/04/04 18:41:16;;;;;;;5.10;3.10;;;;;;;15.83;55.07;98443.08;103864;1297;544816;-80
2024/04/04 18:45:05;;;;;;;7.50;4.20;;;;;;;15.72;55.17;98442.27;103950;1296;549200;-79
2024/04/04 18:48:37;;;;;;;6.00;3.50;;;;;;;15.60;55.12;98440.98;103946;1294;549028;-79
2024/04/04 18:52:10;;;;;;;6.80;2.30;;;;;;;15.47;55.51;98441.59;103518;1295;545965;-79
2024/04/04 18:55:45;;;;;;;4.40;2.40;;;;;;;15.36;55.44;98438.26;103508;1295;545049;-80
2024/04/04 18:59:24;;;;;;;6.30;2.30;;;;;;;15.24;55.65;98433.55;104077;1290;545642;-78
2024/04/04 19:03:06;;;;;;;3.50;2.10;;;;;;;15.16;55.74;98433.16;103641;1298;545627;-78
2024/04/04 19:06:41;;;;;;;4.20;2.00;;;;;;;15.12;56.05;98440.23;103656;1295;544979;-79
2024/04/04 19:20:59;;;;;;;2.40;1.70;;;;;;;15.28;56.04;98450.11;104355;1289;553644;-78
2024/04/04 19:23:40;;;;;;;2.70;1.40;;;;;;;15.31;56.05;98453.15;103697;1295;544964;-81
2024/04/04 19:27:18;;;;;;;3.60;2.40;;;;;;;15.25;56.37;98451.33;103970;1295;544905;-81
2024/04/04 19:30:59;;;;;;;4.80;2.80;;;;;;;15.19;56.60;98459.83;103759;1292;544909;-79
2024/04/04 19:34:34;;;;;;;3.90;2.20;;;;;;;15.13;56.78;98464.25;103652;1293;546657;-79
2024/04/04 19:38:12;;;;;;;3.60;1.60;;;;;;;15.07;57.02;98460.11;103935;1293;544990;-80
2024/04/04 19:41:51;;;;;;;4.20;2.00;;;;;;;15.01;56.99;98464.35;103838;1295;545506;-80
2024/04/04 19:45:25;;;;;;;3.30;2.10;;;;;;;14.96;57.14;98461.27;104725;1299;545420;-80
2024/04/04 19:49:09;;;;;;;4.20;2.20;;;;;;;14.90;57.16;98470.05;104844;1292;545834;-79
2024/04/04 19:52:45;;;;;;;3.50;2.10;;;;;;;14.84;57.40;98469.61;103667;1295;545863;-78
2024/04/04 19:56:22;;;;;;;3.40;2.00;;;;;;;14.79;57.50;98476.42;103737;1294;545891;-81
2024/04/04 20:00:00;;;;;;;2.70;1.50;;;;;;;14.69;57.58;98481.64;104338;1294;545742;-82
2024/04/04 20:03:36;;;;;;;3.10;1.60;;;;;;;14.57;57.70;98488.47;104708;1294;545037;-82
2024/04/04 20:07:30;;;;;;;3.30;2.30;;;;;;;14.50;57.87;98496.10;105182;1295;547910;-82
2024/04/04 20:11:02;;;;;;;3.70;1.80;;;;;;;14.45;57.97;98499.51;104019;1300;545080;-82
2024/04/04 20:14:34;;;;;;;5.20;2.20;;;;;;;14.40;58.22;98507.16;103743;1298;544823;-81
2024/04/04 20:18:12;;;;;;;3.10;1.90;;;;;;;14.39;58.39;98505.50;103907;1298;544917;-83
2024/04/04 20:21:49;;;;;;;4.10;1.60;;;;;;;14.36;58.59;98513.35;103838;1296;544980;-78
2024/04/04 20:25:26;;;;;;;1.80;1.50;;;;;;;14.34;58.81;98514.86;104541;1295;545548;-84
2024/04/04 20:29:08;;;;;;;2.20;1.50;;;;;;;14.32;58.92;98516.77;104271;1294;545094;-79
2024/04/04 20:32:46;;;;;;;2.70;1.70;;;;;;;14.30;59.18;98518.16;103314;1298;545266;-81
2024/04/04 20:36:24;;;;;;;1.70;1.40;;;;;;;14.26;59.18;98518.48;103599;1295;545607;-79
2024/04/04 20:40:05;;;;;;;2.60;1.50;;;;;;;14.23;59.28;98514.12;103565;1297;545898;-77
2024/04/04 20:43:40;;;;;;;1.90;1.30;;;;;;;14.20;59.44;98517.95;103487;1306;545596;-78
2024/04/04 20:47:15;;;;;;;1.60;1.10;;;;;;;14.15;59.42;98523.21;104199;1296;545620;-80
2024/04/04 20:50:57;;;;;;;1.90;1.50;;;;;;;14.11;59.39;98530.94;103552;1295;545485;-79
2024/04/04 20:54:35;;;;;;;1.60;1.30;;;;;;;14.09;59.50;98533.41;103672;1292;544978;-79
2024/04/04 20:58:14;;;;;;;2.70;2.10;;;;;;;14.07;59.63;98537.84;103487;1295;544820;-80
2024/04/04 21:01:51;;;;;;;2.20;1.40;;;;;;;14.04;59.54;98544.02;103532;1294;545777;-80
2024/04/04 21:05:28;;;;;;;2.10;1.40;;;;;;;14.02;59.52;98551.66;103472;1292;545937;-81
2024/04/04 21:09:06;;;;;;;1.90;1.40;;;;;;;13.99;59.43;98561.23;103618;1295;545927;-80
2024/04/04 21:12:43;;;;;;;1.50;1.40;;;;;;;13.96;58.95;98568.35;103690;1292;545613;-78
2024/04/04 21:16:21;;;;;;;1.20;1.00;;;;;;;13.95;58.72;98565.05;103547;1293;545327;-79
2024/04/04 21:20:06;;;;;;;1.30;1.10;;;;;;;13.96;58.35;98574.52;105254;1292;545104;-81
2024/04/04 21:23:37;;;;;;;1.30;1.20;;;;;;;13.96;58.23;98569.94;105510;1292;544840;-79
2024/04/04 21:27:17;;;;;;;1.30;0.90;;;;;;;13.96;58.09;98566.08;105019;1295;545025;-80
2024/04/04 21:31:06;;;;;;;2.50;1.00;;;;;;;13.96;58.11;98571.58;103697;1295;544970;-80
2024/04/04 21:34:35;;;;;;;0.80;0.80;;;;;;;13.94;58.17;98578.08;103819;1298;545008;-81
2024/04/04 21:38:14;;;;;;;1.30;0.90;;;;;;;13.92;58.03;98580.16;104357;1289;546006;-80
2024/04/04 21:41:56;;;;;;;1.20;0.70;;;;;;;13.88;58.03;98591.20;105391;1292;545065;-79
2024/04/04 21:45:42;;;;;;;0.90;0.80;;;;;;;13.86;58.00;98594.23;105126;1296;545112;-78